Time;durP1;ratioP1;P1;durP2;ratioP2;P2;SDS_P1;SDS_P2;PMS_P1;PMS_P2;Temp;Humidity;BMP_temperature;BMP_pressure;BME280_temperature;BME280_humidity;BME280_pressure;Samples;Min_cycle;Max_cycle;Signal;HPM_P1;HPM_P2
2022/07/17 00:01:07;;;;;;;;;;;;;;;25.48;92.56;98524.69;4756824;30;19981;-70
2022/07/17 00:03:34;;;;;;;;;;;;;;;25.52;93.03;98519.56;4756588;30;19957;-70
2022/07/17 00:06:02;;;;;;;;;;;;;;;25.55;94.64;98529.25;4756701;30;19959;-70
2022/07/17 00:08:30;;;;;;;;;;;;;;;25.53;92.40;98534.69;4756453;30;19951;-70
2022/07/17 00:10:58;;;;;;;;;;;;;;;25.50;92.48;98527.88;4756349;30;19956;-70
2022/07/17 00:13:25;;;;;;;;;;;;;;;25.51;94.36;98522.91;4756727;30;19982;-70
2022/07/17 00:15:53;;;;;;;;;;;;;;;25.50;95.03;98522.13;4756936;30;20328;-70
2022/07/17 00:18:20;;;;;;;;;;;;;;;25.48;94.34;98518.19;4756455;30;20370;-70
2022/07/17 00:20:47;;;;;;;;;;;;;;;25.53;92.39;98526.09;4756955;30;19953;-70
2022/07/17 00:23:15;;;;;;;;;;;;;;;25.53;94.73;98520.34;4756449;30;19948;-70
2022/07/17 00:25:42;;;;;;;;;;;;;;;25.54;93.70;98528.44;4756614;30;19949;-70
2022/07/17 00:28:09;;;;;;;;;;;;;;;25.52;92.26;98533.09;4749715;30;19957;-70
2022/07/17 00:30:38;;;;;;;;;;;;;;;25.52;93.64;98538.81;4756087;30;19950;-69
2022/07/17 00:33:05;;;;;;;;;;;;;;;25.52;93.45;98545.34;4756418;30;19973;-69
2022/07/17 00:35:32;;;;;;;;;;;;;;;25.56;95.07;98542.25;4756090;30;19949;-69
2022/07/17 00:37:59;;;;;;;;;;;;;;;25.51;96.54;98549.47;4756131;30;19950;-69
2022/07/17 00:40:27;;;;;;;;;;;;;;;25.46;96.20;98543.66;4755960;30;19979;-69
2022/07/17 00:42:54;;;;;;;;;;;;;;;25.44;98.20;98542.06;4756471;30;19956;-70
2022/07/17 00:45:24;;;;;;;;;;;;;;;25.38;99.09;98549.72;4755492;30;19953;-70
2022/07/17 00:47:51;;;;;;;;;;;;;;;25.31;98.86;98550.13;4756358;30;19956;-70
2022/07/17 00:50:20;;;;;;;;;;;;;;;25.32;99.98;98556.63;4755721;30;19951;-70
2022/07/17 00:52:47;;;;;;;;;;;;;;;25.28;99.77;98550.31;4755583;30;19971;-70
2022/07/17 00:55:16;;;;;;;;;;;;;;;25.22;99.99;98549.41;4755768;30;19951;-70
2022/07/17 00:58:04;;;;;;;;;;;;;;;25.18;100.00;98552.47;4755299;30;19957;-70
2022/07/17 01:00:31;;;;;;;;;;;;;;;25.16;100.00;98548.53;4755616;30;19953;-70
2022/07/17 01:02:58;;;;;;;;;;;;;;;25.13;100.00;98544.56;4755680;30;19955;-70
2022/07/17 01:05:25;;;;;;;;;;;;;;;25.12;100.00;98554.44;4755451;30;19961;-70
2022/07/17 01:07:52;;;;;;;;;;;;;;;25.13;100.00;98561.75;4755613;30;19970;-70
2022/07/17 01:10:20;;;;;;;;;;;;;;;25.14;99.78;98557.59;4754886;30;20212;-70
2022/07/17 01:12:47;;;;;;;;;;;;;;;25.16;97.68;98560.75;4768409;30;19970;-70
2022/07/17 01:15:15;;;;;;;;;;;;;;;25.17;96.27;98562.34;4755831;30;19950;-70
2022/07/17 01:17:43;;;;;;;;;;;;;;;25.21;95.38;98562.91;4755402;30;20362;-70
2022/07/17 01:20:11;;;;;;;;;;;;;;;25.23;95.62;98568.97;4755616;30;19957;-69
2022/07/17 01:22:46;;;;;;;;;;;;;;;25.22;95.98;98569.44;4755597;30;19952;-69
2022/07/17 01:25:14;;;;;;;;;;;;;;;25.20;97.20;98566.28;4755561;30;19950;-70
2022/07/17 01:27:42;;;;;;;;;;;;;;;25.14;97.31;98569.03;4755639;30;19978;-70
2022/07/17 01:30:09;;;;;;;;;;;;;;;25.11;96.79;98574.97;4755248;30;19955;-70
2022/07/17 01:32:38;;;;;;;;;;;;;;;25.12;96.17;98567.94;4755049;30;19978;-69
2022/07/17 01:35:06;;;;;;;;;;;;;;;25.12;96.64;98571.59;4755774;30;19953;-69
2022/07/17 01:37:34;;;;;;;;;;;;;;;25.06;96.20;98585.00;4755620;30;20322;-69
2022/07/17 01:40:02;;;;;;;;;;;;;;;25.05;97.16;98588.34;4755729;30;20235;-69
2022/07/17 01:42:30;;;;;;;;;;;;;;;25.01;100.00;98585.69;4755361;30;19955;-69
2022/07/17 01:44:58;;;;;;;;;;;;;;;24.97;100.00;98590.00;4755358;30;19948;-70
2022/07/17 01:47:25;;;;;;;;;;;;;;;24.82;100.00;98587.06;4755810;30;19950;-70
2022/07/17 01:49:54;;;;;;;;;;;;;;;24.77;100.00;98587.78;4754760;30;19956;-70
2022/07/17 01:52:22;;;;;;;;;;;;;;;24.72;100.00;98594.13;4755503;30;19977;-70
2022/07/17 01:54:50;;;;;;;;;;;;;;;24.67;100.00;98591.94;4755414;30;19955;-70
2022/07/17 01:57:18;;;;;;;;;;;;;;;24.56;100.00;98595.31;4754360;30;19957;-70
2022/07/17 01:59:46;;;;;;;;;;;;;;;24.48;100.00;98593.28;4754924;30;20457;-70
2022/07/17 02:02:15;;;;;;;;;;;;;;;24.36;100.00;98603.69;4754914;30;19983;-70
2022/07/17 02:04:43;;;;;;;;;;;;;;;24.28;100.00;98604.53;4755309;30;19952;-70
2022/07/17 02:07:11;;;;;;;;;;;;;;;24.10;100.00;98600.47;4755155;30;19963;-70
2022/07/17 02:09:38;;;;;;;;;;;;;;;24.04;100.00;98605.22;4755430;30;19942;-69
2022/07/17 02:12:06;;;;;;;;;;;;;;;23.88;100.00;98611.31;4754882;30;19976;-69
2022/07/17 02:14:33;;;;;;;;;;;;;;;23.73;100.00;98615.28;4754989;30;19973;-70
2022/07/17 02:17:01;;;;;;;;;;;;;;;23.64;100.00;98613.25;4755060;30;19962;-69
2022/07/17 02:19:28;;;;;;;;;;;;;;;23.52;100.00;98612.16;4755039;30;19952;-69
2022/07/17 02:21:55;;;;;;;;;;;;;;;23.45;100.00;98614.56;4754512;30;19956;-69
2022/07/17 02:24:23;;;;;;;;;;;;;;;23.32;100.00;98616.75;4754679;30;19984;-69
2022/07/17 02:26:50;;;;;;;;;;;;;;;23.20;100.00;98618.50;4754775;30;19979;-70
2022/07/17 02:29:17;;;;;;;;;;;;;;;23.18;100.00;98618.16;4754564;30;19949;-69
2022/07/17 02:31:45;;;;;;;;;;;;;;;23.17;100.00;98624.34;4755036;30;19954;-69
2022/07/17 02:34:12;;;;;;;;;;;;;;;23.09;100.00;98618.16;4754791;30;19979;-69
2022/07/17 02:36:39;;;;;;;;;;;;;;;23.04;100.00;98620.84;4754799;30;19958;-69
2022/07/17 02:39:06;;;;;;;;;;;;;;;22.96;100.00;98628.94;4754929;30;19957;-70
2022/07/17 02:41:34;;;;;;;;;;;;;;;23.01;100.00;98619.72;4755203;30;19954;-70
2022/07/17 02:44:01;;;;;;;;;;;;;;;23.02;100.00;98631.94;4754905;30;19963;-70
2022/07/17 02:46:28;;;;;;;;;;;;;;;23.10;100.00;98628.31;4754676;30;19952;-69
2022/07/17 02:48:55;;;;;;;;;;;;;;;23.09;100.00;98637.34;4754927;30;19955;-69
2022/07/17 02:51:22;;;;;;;;;;;;;;;23.06;100.00;98636.22;4754747;30;20251;-69
2022/07/17 02:53:50;;;;;;;;;;;;;;;23.04;100.00;98641.59;4754838;30;19980;-69
2022/07/17 02:56:17;;;;;;;;;;;;;;;23.00;100.00;98640.97;4754623;30;20337;-69
2022/07/17 02:58:44;;;;;;;;;;;;;;;22.92;100.00;98638.88;4754292;30;19951;-69
2022/07/17 03:01:11;;;;;;;;;;;;;;;22.79;100.00;98645.53;4754947;30;19956;-69
2022/07/17 03:03:39;;;;;;;;;;;;;;;22.70;100.00;98648.38;4756971;30;19951;-69
2022/07/17 03:06:06;;;;;;;;;;;;;;;22.67;100.00;98640.75;4754457;30;20366;-69
2022/07/17 03:08:33;;;;;;;;;;;;;;;22.66;100.00;98650.56;4755865;30;19951;-69
2022/07/17 03:11:01;;;;;;;;;;;;;;;22.70;100.00;98648.38;4757682;30;19958;-69
2022/07/17 03:13:28;;;;;;;;;;;;;;;22.71;100.00;98655.66;4757876;30;20401;-69
2022/07/17 03:15:55;;;;;;;;;;;;;;;22.71;100.00;98657.72;4757933;30;20437;-69
2022/07/17 03:18:22;;;;;;;;;;;;;;;22.70;100.00;98661.81;4757478;30;19951;-69
2022/07/17 03:20:50;;;;;;;;;;;;;;;22.75;100.00;98666.91;4757293;30;19956;-69
2022/07/17 03:23:17;;;;;;;;;;;;;;;22.79;100.00;98671.19;4757764;30;19955;-69
2022/07/17 03:25:44;;;;;;;;;;;;;;;22.83;100.00;98663.28;4757425;30;19960;-69
2022/07/17 03:28:11;;;;;;;;;;;;;;;22.89;100.00;98666.28;4757561;30;20332;-69
2022/07/17 03:30:39;;;;;;;;;;;;;;;22.93;100.00;98671.88;4757447;30;19959;-69
2022/07/17 03:33:06;;;;;;;;;;;;;;;22.95;100.00;98675.81;4757018;30;19973;-69
2022/07/17 03:35:33;;;;;;;;;;;;;;;22.98;100.00;98672.03;4757758;30;19953;-69
2022/07/17 03:38:00;;;;;;;;;;;;;;;23.02;100.00;98678.38;4741628;30;19960;-69
2022/07/17 03:40:27;;;;;;;;;;;;;;;23.06;100.00;98686.78;4756800;30;19965;-69
2022/07/17 03:42:55;;;;;;;;;;;;;;;23.12;100.00;98679.97;4741692;30;19949;-69
2022/07/17 03:45:22;;;;;;;;;;;;;;;23.18;100.00;98680.16;4757074;30;20616;-69
2022/07/17 03:47:49;;;;;;;;;;;;;;;23.25;100.00;98688.41;4757171;30;19951;-69
2022/07/17 03:50:16;;;;;;;;;;;;;;;23.30;100.00;98691.41;4756770;30;19962;-69
2022/07/17 03:52:43;;;;;;;;;;;;;;;23.29;100.00;98700.44;4756698;30;19978;-69
2022/07/17 03:55:11;;;;;;;;;;;;;;;23.35;100.00;98702.22;4757567;30;19962;-69
2022/07/17 03:57:38;;;;;;;;;;;;;;;23.39;100.00;98707.78;4757217;30;19960;-69
2022/07/17 04:00:06;;;;;;;;;;;;;;;23.39;100.00;98713.50;4756745;30;19954;-69
2022/07/17 04:02:39;;;;;;;;;;;;;;;23.39;100.00;98714.28;4756790;30;20350;-69
2022/07/17 04:05:09;;;;;;;;;;;;;;;23.33;100.00;98710.44;4756537;30;19962;-70
2022/07/17 04:07:37;;;;;;;;;;;;;;;23.25;100.00;98708.38;4756655;30;19954;-69
2022/07/17 04:10:05;;;;;;;;;;;;;;;23.08;100.00;98712.78;4756703;30;19962;-69
2022/07/17 04:12:32;;;;;;;;;;;;;;;23.04;100.00;98717.81;4756354;30;19982;-69
2022/07/17 04:15:00;;;;;;;;;;;;;;;22.96;100.00;98720.22;4756896;30;20267;-69
2022/07/17 04:17:27;;;;;;;;;;;;;;;22.90;100.00;98724.94;4756412;30;20371;-69
2022/07/17 04:19:54;;;;;;;;;;;;;;;22.85;100.00;98722.69;4755880;30;19950;-69
2022/07/17 04:22:21;;;;;;;;;;;;;;;22.83;100.00;98728.88;4756927;30;19957;-69
2022/07/17 04:24:49;;;;;;;;;;;;;;;22.95;100.00;98726.38;4756166;30;19952;-69
2022/07/17 04:27:17;;;;;;;;;;;;;;;23.02;100.00;98731.78;4756258;30;19979;-69
2022/07/17 04:29:44;;;;;;;;;;;;;;;23.07;100.00;98728.31;4756458;30;19950;-69
2022/07/17 04:32:11;;;;;;;;;;;;;;;23.07;100.00;98734.00;4756967;30;20233;-69
2022/07/17 04:34:38;;;;;;;;;;;;;;;23.20;100.00;98737.53;4755820;30;20361;-69
2022/07/17 04:37:06;;;;;;;;;;;;;;;23.32;100.00;98739.47;4756224;30;20370;-69
2022/07/17 04:39:33;;;;;;;;;;;;;;;23.43;100.00;98739.81;4756469;30;19949;-69
2022/07/17 04:42:00;;;;;;;;;;;;;;;23.54;100.00;98737.28;4756312;30;19949;-69
2022/07/17 04:44:27;;;;;;;;;;;;;;;23.73;100.00;98746.66;4740271;30;19966;-69
2022/07/17 04:46:56;;;;;;;;;;;;;;;23.90;100.00;98747.91;4755747;30;19955;-69
2022/07/17 04:49:23;;;;;;;;;;;;;;;24.12;100.00;98751.41;4756249;30;19962;-69
2022/07/17 04:51:50;;;;;;;;;;;;;;;24.38;100.00;98749.78;4755972;30;19954;-69
2022/07/17 04:54:17;;;;;;;;;;;;;;;24.79;100.00;98754.78;4744097;30;19967;-70
2022/07/17 04:56:44;;;;;;;;;;;;;;;25.11;100.00;98758.91;4755893;30;20250;-70
2022/07/17 04:59:12;;;;;;;;;;;;;;;25.51;100.00;98749.13;4755673;30;19952;-70
2022/07/17 05:01:39;;;;;;;;;;;;;;;25.73;100.00;98753.25;4758246;30;19956;-70
2022/07/17 05:04:06;;;;;;;;;;;;;;;26.17;100.00;98764.84;4755124;30;19954;-70
2022/07/17 05:06:33;;;;;;;;;;;;;;;26.49;100.00;98766.75;4756093;30;19952;-70
2022/07/17 05:09:01;;;;;;;;;;;;;;;26.66;100.00;98770.72;4755557;30;19954;-70
2022/07/17 05:11:28;;;;;;;;;;;;;;;27.00;100.00;98768.41;4755617;30;19955;-70
2022/07/17 05:13:56;;;;;;;;;;;;;;;27.27;100.00;98777.47;4755350;30;20396;-70
2022/07/17 05:16:23;;;;;;;;;;;;;;;27.35;100.00;98778.63;4743216;30;19961;-70
2022/07/17 05:18:50;;;;;;;;;;;;;;;27.44;100.00;98774.09;4755996;30;19961;-70
2022/07/17 05:21:18;;;;;;;;;;;;;;;27.82;96.87;98783.22;4755928;30;19954;-70
2022/07/17 05:23:45;;;;;;;;;;;;;;;27.82;98.18;98782.44;4755876;30;19952;-70
2022/07/17 05:26:12;;;;;;;;;;;;;;;27.79;100.00;98789.16;4755579;30;20262;-70
2022/07/17 05:28:39;;;;;;;;;;;;;;;27.71;99.68;98785.94;4756023;30;19951;-70
2022/07/17 05:31:07;;;;;;;;;;;;;;;27.46;99.81;98782.97;4754709;30;19956;-70
2022/07/17 05:33:34;;;;;;;;;;;;;;;27.20;100.00;98786.50;4755516;30;19968;-70
2022/07/17 05:36:02;;;;;;;;;;;;;;;26.91;100.00;98789.41;4754673;30;19980;-70
2022/07/17 05:38:29;;;;;;;;;;;;;;;27.04;100.00;98791.97;4755422;30;19951;-70
2022/07/17 05:40:56;;;;;;;;;;;;;;;26.83;100.00;98793.97;4755198;30;19960;-70
2022/07/17 05:43:23;;;;;;;;;;;;;;;27.10;100.00;98789.97;4754861;30;19951;-70
2022/07/17 05:45:54;;;;;;;;;;;;;;;27.11;100.00;98792.38;4755108;30;20359;-70
2022/07/17 05:48:22;;;;;;;;;;;;;;;27.40;100.00;98793.59;4754942;30;20182;-69
2022/07/17 05:50:49;;;;;;;;;;;;;;;27.43;100.00;98801.22;4755081;30;19954;-69
2022/07/17 05:53:16;;;;;;;;;;;;;;;27.22;100.00;98794.59;4755286;30;19958;-70
2022/07/17 05:55:43;;;;;;;;;;;;;;;26.93;100.00;98804.06;4754213;30;20255;-70
2022/07/17 05:58:11;;;;;;;;;;;;;;;26.92;100.00;98802.50;4755060;30;19956;-70
2022/07/17 06:00:38;;;;;;;;;;;;;;;27.13;100.00;98812.75;4754558;30;19970;-70
2022/07/17 06:03:06;;;;;;;;;;;;;;;26.73;100.00;98813.34;4755052;30;19954;-70
2022/07/17 06:05:33;;;;;;;;;;;;;;;27.17;100.00;98806.78;4754951;30;19950;-70
2022/07/17 06:08:01;;;;;;;;;;;;;;;27.24;100.00;98809.28;4754918;30;19955;-70
2022/07/17 06:10:29;;;;;;;;;;;;;;;27.54;100.00;98813.66;4754697;30;20072;-70
2022/07/17 06:12:56;;;;;;;;;;;;;;;27.26;100.00;98818.97;4754885;30;19960;-70
2022/07/17 06:15:23;;;;;;;;;;;;;;;27.13;100.00;98817.69;4754890;30;19966;-70
2022/07/17 06:17:51;;;;;;;;;;;;;;;26.96;100.00;98813.75;4754737;30;20415;-70
2022/07/17 06:20:18;;;;;;;;;;;;;;;27.35;100.00;98824.59;4755268;30;19956;-70
2022/07/17 06:22:46;;;;;;;;;;;;;;;27.34;100.00;98825.06;4754502;30;19974;-70
2022/07/17 06:25:13;;;;;;;;;;;;;;;27.19;100.00;98827.97;4754762;30;19968;-70
2022/07/17 06:27:41;;;;;;;;;;;;;;;27.53;100.00;98829.31;4754908;30;19979;-70
2022/07/17 06:30:09;;;;;;;;;;;;;;;27.31;100.00;98828.97;4754723;30;19957;-70
2022/07/17 06:32:36;;;;;;;;;;;;;;;27.37;100.00;98829.81;4754782;30;20374;-70
2022/07/17 06:35:04;;;;;;;;;;;;;;;27.49;100.00;98827.94;4754129;30;19973;-70
2022/07/17 06:37:31;;;;;;;;;;;;;;;27.39;100.00;98835.13;4754750;30;19951;-70
2022/07/17 06:39:59;;;;;;;;;;;;;;;27.52;100.00;98830.59;4738687;30;19958;-70
2022/07/17 06:42:26;;;;;;;;;;;;;;;27.17;100.00;98835.50;4756322;30;19954;-70
2022/07/17 06:44:57;;;;;;;;;;;;;;;27.58;100.00;98840.09;4758006;30;19955;-70
2022/07/17 06:47:24;;;;;;;;;;;;;;;27.42;100.00;98837.75;4757618;30;19950;-70
2022/07/17 06:49:52;;;;;;;;;;;;;;;27.37;100.00;98844.19;4758106;30;19955;-70
2022/07/17 06:52:19;;;;;;;;;;;;;;;27.66;100.00;98840.44;4757917;30;20343;-70
2022/07/17 06:54:46;;;;;;;;;;;;;;;27.70;100.00;98824.59;4757806;30;19978;-70
2022/07/17 06:57:13;;;;;;;;;;;;;;;27.76;100.00;98841.91;4761915;30;20208;-70
2022/07/17 06:59:40;;;;;;;;;;;;;;;27.68;100.00;98835.03;4768093;30;19951;-70
2022/07/17 07:02:08;;;;;;;;;;;;;;;27.53;100.00;98837.16;4758051;30;19982;-70
2022/07/17 07:04:35;;;;;;;;;;;;;;;27.26;100.00;98833.31;4757207;30;19952;-70
2022/07/17 07:07:02;;;;;;;;;;;;;;;27.37;100.00;98835.56;4757871;30;19951;-70
2022/07/17 07:09:29;;;;;;;;;;;;;;;27.56;100.00;98836.91;4758117;30;19952;-70
2022/07/17 07:11:57;;;;;;;;;;;;;;;27.24;100.00;98840.84;4757523;30;19959;-70
2022/07/17 07:14:24;;;;;;;;;;;;;;;27.15;100.00;98841.75;4757082;30;20087;-70
2022/07/17 07:16:51;;;;;;;;;;;;;;;27.03;100.00;98839.19;4757423;30;19955;-70
2022/07/17 07:19:19;;;;;;;;;;;;;;;26.94;100.00;98833.56;4756988;30;19954;-70
2022/07/17 07:21:46;;;;;;;;;;;;;;;27.17;100.00;98829.75;4757076;30;19953;-70
2022/07/17 07:24:13;;;;;;;;;;;;;;;27.44;100.00;98843.03;4757471;30;19955;-70
2022/07/17 07:26:40;;;;;;;;;;;;;;;27.24;100.00;98838.00;4757708;30;19982;-70
2022/07/17 07:29:08;;;;;;;;;;;;;;;27.39;100.00;98835.13;4757296;30;19951;-70
2022/07/17 07:31:37;;;;;;;;;;;;;;;27.64;100.00;98843.03;4756913;30;19959;-70
2022/07/17 07:34:05;;;;;;;;;;;;;;;27.58;100.00;98839.31;4757707;30;19958;-70
2022/07/17 07:36:32;;;;;;;;;;;;;;;27.79;100.00;98844.56;4757706;30;19945;-70
2022/07/17 07:38:59;;;;;;;;;;;;;;;28.03;100.00;98844.41;4757178;30;19958;-70
2022/07/17 07:41:26;;;;;;;;;;;;;;;28.17;100.00;98837.75;4757528;30;19958;-70
2022/07/17 07:43:54;;;;;;;;;;;;;;;27.86;100.00;98846.22;4756704;30;20376;-70
2022/07/17 07:46:21;;;;;;;;;;;;;;;27.85;100.00;98854.06;4757202;30;19958;-70
2022/07/17 07:48:48;;;;;;;;;;;;;;;27.96;100.00;98853.41;4756986;30;19950;-70
2022/07/17 07:51:15;;;;;;;;;;;;;;;27.95;100.00;98858.38;4756800;30;20307;-70
2022/07/17 07:53:43;;;;;;;;;;;;;;;27.95;100.00;98854.72;4756528;30;20247;-70
2022/07/17 07:56:12;;;;;;;;;;;;;;;27.82;100.00;98866.56;4756805;30;19969;-70
2022/07/17 07:58:39;;;;;;;;;;;;;;;27.53;100.00;98854.38;4756541;30;19982;-70
2022/07/17 08:01:06;;;;;;;;;;;;;;;27.66;100.00;98854.81;4757049;30;19954;-70
2022/07/17 08:03:33;;;;;;;;;;;;;;;27.95;100.00;98852.63;4756474;30;19957;-70
2022/07/17 08:06:01;;;;;;;;;;;;;;;28.15;100.00;98853.94;4741272;30;20341;-70
2022/07/17 08:08:28;;;;;;;;;;;;;;;28.22;100.00;98856.41;4756382;30;19956;-70
2022/07/17 08:10:55;;;;;;;;;;;;;;;28.28;100.00;98863.00;4756386;30;19950;-70
2022/07/17 08:13:23;;;;;;;;;;;;;;;28.38;100.00;98853.72;4756676;30;19951;-70
2022/07/17 08:15:50;;;;;;;;;;;;;;;28.00;100.00;98857.69;4756651;30;19965;-70
2022/07/17 08:18:17;;;;;;;;;;;;;;;27.97;100.00;98861.53;4756692;30;19950;-70
2022/07/17 08:20:44;;;;;;;;;;;;;;;28.10;100.00;98860.44;4756486;30;19955;-70
2022/07/17 08:23:12;;;;;;;;;;;;;;;27.99;100.00;98876.22;4756521;30;19950;-70
2022/07/17 08:25:39;;;;;;;;;;;;;;;27.85;100.00;98868.44;4756163;30;20074;-70
2022/07/17 08:28:06;;;;;;;;;;;;;;;27.77;100.00;98878.78;4756506;30;19964;-70
2022/07/17 08:30:34;;;;;;;;;;;;;;;27.79;100.00;98873.31;4756294;30;19951;-70
2022/07/17 08:33:06;;;;;;;;;;;;;;;27.74;100.00;98873.22;4756088;30;20341;-70
2022/07/17 08:35:34;;;;;;;;;;;;;;;28.14;100.00;98881.94;4756448;30;19971;-70
2022/07/17 08:38:02;;;;;;;;;;;;;;;28.07;100.00;98876.63;4756257;30;19987;-70
2022/07/17 08:40:30;;;;;;;;;;;;;;;28.36;100.00;98884.28;4756161;30;20250;-70
2022/07/17 08:42:58;;;;;;;;;;;;;;;28.46;100.00;98882.84;4756403;30;19957;-70
2022/07/17 08:45:26;;;;;;;;;;;;;;;28.38;100.00;98888.25;4755933;30;19958;-70
2022/07/17 08:47:54;;;;;;;;;;;;;;;28.32;100.00;98889.44;4755991;30;19958;-70
2022/07/17 08:50:23;;;;;;;;;;;;;;;28.55;100.00;98885.56;4756162;30;19981;-70
2022/07/17 08:52:50;;;;;;;;;;;;;;;28.48;100.00;98892.56;4755725;30;19955;-70
2022/07/17 08:55:18;;;;;;;;;;;;;;;28.45;100.00;98893.56;4758026;30;19982;-70
2022/07/17 08:57:45;;;;;;;;;;;;;;;28.56;100.00;98895.78;4755569;30;19956;-70
2022/07/17 09:00:15;;;;;;;;;;;;;;;28.42;100.00;98897.44;4755685;30;19952;-70
2022/07/17 09:02:52;;;;;;;;;;;;;;;28.30;100.00;98894.94;4756041;30;20332;-70
2022/07/17 09:05:23;;;;;;;;;;;;;;;28.14;100.00;98889.75;4755779;30;19954;-70
2022/07/17 09:07:50;;;;;;;;;;;;;;;28.31;100.00;98897.31;4755876;30;19954;-70
2022/07/17 09:10:18;;;;;;;;;;;;;;;28.37;100.00;98895.28;4755938;30;19953;-70
2022/07/17 09:12:45;;;;;;;;;;;;;;;28.38;100.00;98898.97;4755748;30;19960;-70
2022/07/17 09:15:16;;;;;;;;;;;;;;;28.62;100.00;98894.56;4755303;30;19977;-70
2022/07/17 09:17:51;;;;;;;;;;;;;;;28.40;100.00;98902.13;4740329;30;20245;-70
2022/07/17 09:20:20;;;;;;;;;;;;;;;28.82;100.00;98899.50;4755236;30;19949;-70
2022/07/17 09:23:00;;;;;;;;;;;;;;;28.83;100.00;98901.06;4755327;30;20235;-70
2022/07/17 09:28:44;;;;;;;;;;;;;;;28.90;100.00;98906.41;4853571;24;19980;-72
2022/07/17 09:31:12;;;;;;;;;;;;;;;29.00;100.00;98904.91;4756518;30;20243;-72
2022/07/17 09:33:39;;;;;;;;;;;;;;;29.02;100.00;98902.31;4756630;30;20456;-72
2022/07/17 09:36:12;;;;;;;;;;;;;;;29.02;100.00;98902.31;4756024;30;20548;-72
2022/07/17 09:38:40;;;;;;;;;;;;;;;28.73;100.00;98916.94;4755646;30;19958;-72
2022/07/17 09:41:17;;;;;;;;;;;;;;;28.74;100.00;98912.75;4756485;30;19958;-72
2022/07/17 09:43:46;;;;;;;;;;;;;;;28.88;100.00;98903.22;4756512;30;19950;-72
2022/07/17 09:46:15;;;;;;;;;;;;;;;29.02;100.00;98908.09;4738929;30;19963;-72
2022/07/17 09:48:47;;;;;;;;;;;;;;;29.02;100.00;98908.09;4749710;30;20349;-72
2022/07/17 09:51:16;;;;;;;;;;;;;;;29.03;100.00;98906.78;4756072;30;19951;-72
2022/07/17 09:53:44;;;;;;;;;;;;;;;29.24;100.00;98902.56;4755584;30;19949;-72
2022/07/17 09:56:14;;;;;;;;;;;;;;;29.21;100.00;98909.34;4756016;30;19974;-72
2022/07/17 09:58:43;;;;;;;;;;;;;;;28.98;100.00;98895.97;4756475;30;19953;-72
2022/07/17 10:01:10;;;;;;;;;;;;;;;28.97;100.00;98894.44;4755864;30;20350;-72
2022/07/17 10:03:37;;;;;;;;;;;;;;;28.82;100.00;98899.50;4755882;30;19949;-72
2022/07/17 10:06:05;;;;;;;;;;;;;;;28.89;100.00;98904.00;4755567;30;20380;-72
2022/07/17 10:08:33;;;;;;;;;;;;;;;28.95;100.00;98896.22;4755679;30;19960;-72
2022/07/17 10:11:01;;;;;;;;;;;;;;;28.88;100.00;98894.56;4755968;30;19949;-72
2022/07/17 10:13:29;;;;;;;;;;;;;;;28.92;100.00;98900.13;4756226;30;19955;-72
2022/07/17 10:15:57;;;;;;;;;;;;;;;29.20;100.00;98893.34;4755817;30;20365;-72
2022/07/17 10:18:41;;;;;;;;;;;;;;;29.18;100.00;98895.13;4758399;30;19950;-72
2022/07/17 10:21:09;;;;;;;;;;;;;;;29.38;100.00;98897.97;4760048;30;19950;-72
2022/07/17 10:23:36;;;;;;;;;;;;;;;29.26;100.00;98904.94;4759880;30;19954;-72
2022/07/17 10:26:05;;;;;;;;;;;;;;;29.20;100.00;98902.00;4759523;30;19960;-72
2022/07/17 10:28:38;;;;;;;;;;;;;;;29.34;100.00;98900.28;4759621;30;19982;-72
2022/07/17 10:31:05;;;;;;;;;;;;;;;29.28;100.00;98903.13;4758387;30;19958;-70
2022/07/17 10:33:32;;;;;;;;;;;;;;;29.28;100.00;98908.88;4759691;30;19960;-70
2022/07/17 10:36:00;;;;;;;;;;;;;;;29.40;100.00;98912.63;4759321;30;19971;-70
2022/07/17 10:38:27;;;;;;;;;;;;;;;29.45;100.00;98899.56;4759000;30;19967;-70
2022/07/17 10:41:01;;;;;;;;;;;;;;;29.40;100.00;98897.44;4759656;30;20326;-70
2022/07/17 10:43:39;;;;;;;;;;;;;;;29.55;100.00;98901.75;4758841;30;19953;-70
2022/07/17 10:46:06;;;;;;;;;;;;;;;29.69;100.00;98897.13;4759379;30;20336;-70
2022/07/17 10:48:35;;;;;;;;;;;;;;;29.67;100.00;98900.53;4759577;30;19951;-70
2022/07/17 10:51:02;;;;;;;;;;;;;;;29.57;100.00;98907.78;4759376;30;19958;-70
2022/07/17 10:53:29;;;;;;;;;;;;;;;29.61;100.00;98905.50;4758870;30;19954;-70
2022/07/17 10:56:03;;;;;;;;;;;;;;;29.52;100.00;98893.34;4758777;30;20256;-70
2022/07/17 10:58:37;;;;;;;;;;;;;;;29.70;100.00;98905.28;4759262;30;19953;-70
2022/07/17 11:01:10;;;;;;;;;;;;;;;29.51;100.00;98901.22;4759187;30;19954;-70
2022/07/17 11:03:40;;;;;;;;;;;;;;;29.54;100.00;98893.63;4759288;30;19957;-70
2022/07/17 11:06:10;;;;;;;;;;;;;;;29.62;100.00;98898.41;4758954;30;19957;-70
2022/07/17 11:08:45;;;;;;;;;;;;;;;29.71;100.00;98894.53;4758918;30;19955;-70
2022/07/17 11:11:12;;;;;;;;;;;;;;;30.02;100.00;98897.38;4743369;30;19957;-70
2022/07/17 11:13:45;;;;;;;;;;;;;;;29.80;100.00;98895.16;4758239;30;19951;-70
2022/07/17 11:16:12;;;;;;;;;;;;;;;30.02;100.00;98885.84;4758708;30;19965;-70
2022/07/17 11:18:45;;;;;;;;;;;;;;;30.05;100.00;98886.91;4757092;30;19957;-70
2022/07/17 11:21:13;;;;;;;;;;;;;;;30.04;100.00;98889.00;4758790;30;19956;-70
2022/07/17 11:23:49;;;;;;;;;;;;;;;30.19;100.00;98877.28;4758428;30;20339;-70
2022/07/17 11:26:17;;;;;;;;;;;;;;;30.30;100.00;98874.41;4758407;30;19953;-70
2022/07/17 11:28:45;;;;;;;;;;;;;;;30.14;100.00;98883.81;4757499;30;19970;-70
2022/07/17 11:31:16;;;;;;;;;;;;;;;30.20;100.00;98884.63;4757982;30;19954;-70
2022/07/17 11:33:48;;;;;;;;;;;;;;;29.89;100.00;98877.66;4758850;30;19947;-70
2022/07/17 11:36:28;;;;;;;;;;;;;;;30.00;100.00;98867.47;4758494;30;19971;-70
2022/07/17 11:38:56;;;;;;;;;;;;;;;30.03;100.00;98870.09;4758355;30;19947;-70
2022/07/17 11:41:31;;;;;;;;;;;;;;;30.23;100.00;98884.38;4758172;30;19958;-70
2022/07/17 11:43:59;;;;;;;;;;;;;;;30.13;100.00;98882.22;4758283;30;19952;-70
2022/07/17 11:46:30;;;;;;;;;;;;;;;30.24;100.00;98879.38;4758624;30;19962;-70
2022/07/17 11:48:58;;;;;;;;;;;;;;;30.25;100.00;98866.56;4758360;30;19960;-70
2022/07/17 11:51:39;;;;;;;;;;;;;;;30.44;100.00;98864.81;4757816;30;19961;-70
2022/07/17 11:54:10;;;;;;;;;;;;;;;30.39;100.00;98862.69;4758180;30;19982;-70
2022/07/17 11:56:39;;;;;;;;;;;;;;;30.43;100.00;98855.38;4758472;30;19973;-70
2022/07/17 11:59:06;;;;;;;;;;;;;;;30.38;100.00;98856.13;4758078;30;20068;-70
2022/07/17 12:01:41;;;;;;;;;;;;;;;30.44;100.00;98859.03;4742524;30;19956;-70
2022/07/17 12:04:10;;;;;;;;;;;;;;;30.33;100.00;98853.19;4758049;30;19948;-70
2022/07/17 12:06:41;;;;;;;;;;;;;;;30.46;98.99;98857.22;4757605;30;20251;-70
2022/07/17 12:09:08;;;;;;;;;;;;;;;30.53;96.91;98847.25;4757858;30;19959;-70
2022/07/17 12:11:49;;;;;;;;;;;;;;;30.60;96.27;98849.63;4758043;30;19960;-70
2022/07/17 12:14:16;;;;;;;;;;;;;;;30.69;98.54;98845.72;4758062;30;20265;-70
2022/07/17 12:16:44;;;;;;;;;;;;;;;30.53;96.21;98848.06;4757852;30;19969;-70
2022/07/17 12:19:15;;;;;;;;;;;;;;;30.46;97.98;98834.13;4757588;30;19953;-70
2022/07/17 12:21:47;;;;;;;;;;;;;;;30.53;97.28;98839.38;4757472;30;20261;-70
2022/07/17 12:24:19;;;;;;;;;;;;;;;30.48;96.85;98839.38;4742029;30;20242;-70
2022/07/17 12:26:46;;;;;;;;;;;;;;;30.74;99.25;98836.28;4757732;30;19949;-70
2022/07/17 12:29:14;;;;;;;;;;;;;;;30.67;98.80;98840.47;4757520;30;19953;-70
2022/07/17 12:31:41;;;;;;;;;;;;;;;30.61;93.68;98833.09;4756998;30;19951;-70
2022/07/17 12:34:08;;;;;;;;;;;;;;;30.72;96.96;98831.03;4756373;30;19950;-70
2022/07/17 12:36:35;;;;;;;;;;;;;;;30.54;94.22;98840.94;4757353;30;20270;-70
2022/07/17 12:39:03;;;;;;;;;;;;;;;30.60;92.94;98829.44;4757454;30;19961;-70
2022/07/17 12:41:31;;;;;;;;;;;;;;;30.63;93.38;98836.25;4756647;30;20371;-70
2022/07/17 12:43:58;;;;;;;;;;;;;;;30.67;92.89;98839.66;4756671;30;20009;-70
2022/07/17 12:46:25;;;;;;;;;;;;;;;30.68;94.07;98832.59;4757198;30;19963;-70